Time;durP1;ratioP1;P1;durP2;ratioP2;P2;SDS_P1;SDS_P2;PMS_P1;PMS_P2;Temp;Humidity;BMP_temperature;BMP_pressure;BME280_temperature;BME280_humidity;BME280_pressure;Samples;Min_cycle;Max_cycle;Signal;HPM_P1;HPM_P2
2021/09/24 00:01:08;;;;;;;2.55;1.48;;;;;;;;;;5093339;28;20016;-41
2021/09/24 00:03:37;;;;;;;4.38;1.20;;;;;;;;;;5092843;28;20490;-41
2021/09/24 00:06:03;;;;;;;1.90;1.20;;;;;;;;;;5092949;28;20383;-41
2021/09/24 00:08:28;;;;;;;2.92;1.83;;;;;;;;;;5091560;28;20546;-41
2021/09/24 00:10:54;;;;;;;3.22;1.48;;;;;;;;;;5093076;28;20208;-42
2021/09/24 00:13:19;;;;;;;1.70;1.23;;;;;;;;;;5092849;28;20024;-41
2021/09/24 00:15:45;;;;;;;2.08;1.27;;;;;;;;;;5092560;28;20016;-41
2021/09/24 00:18:10;;;;;;;2.03;1.50;;;;;;;;;;5092905;28;20066;-41
2021/09/24 00:20:36;;;;;;;6.45;1.88;;;;;;;;;;5092572;28;20455;-42
2021/09/24 00:23:02;;;;;;;2.20;1.27;;;;;;;;;;5092781;28;20069;-41
2021/09/24 00:25:28;;;;;;;1.48;1.30;;;;;;;;;;5092664;28;20459;-41
2021/09/24 00:27:53;;;;;;;2.55;1.63;;;;;;;;;;5092728;28;20028;-42
2021/09/24 00:30:18;;;;;;;3.95;1.42;;;;;;;;;;5092618;28;20399;-41
2021/09/24 00:32:44;;;;;;;3.80;1.63;;;;;;;;;;5092583;28;20028;-42
2021/09/24 00:35:09;;;;;;;2.88;1.65;;;;;;;;;;5092495;28;20020;-41
2021/09/24 00:37:35;;;;;;;2.13;1.67;;;;;;;;;;5092780;28;20032;-41
2021/09/24 00:40:00;;;;;;;2.72;1.73;;;;;;;;;;5092414;28;20452;-41
2021/09/24 00:42:26;;;;;;;2.65;1.38;;;;;;;;;;5092727;28;20028;-41
2021/09/24 00:44:51;;;;;;;1.33;1.08;;;;;;;;;;5092676;28;20397;-41
2021/09/24 00:47:19;;;;;;;2.30;1.77;;;;;;;;;;5092270;28;20043;-41
2021/09/24 00:49:45;;;;;;;2.50;1.55;;;;;;;;;;5092253;28;20035;-43
2021/09/24 00:52:10;;;;;;;3.28;1.65;;;;;;;;;;5092566;28;20390;-42
2021/09/24 00:54:36;;;;;;;3.42;1.73;;;;;;;;;;5092248;28;20466;-42
2021/09/24 00:57:02;;;;;;;3.20;1.80;;;;;;;;;;5092603;28;20043;-41
2021/09/24 00:59:28;;;;;;;2.25;1.55;;;;;;;;;;5096472;28;20517;-42
2021/09/24 01:01:53;;;;;;;1.67;1.58;;;;;;;;;;5096495;28;20035;-41
2021/09/24 01:04:19;;;;;;;2.40;1.40;;;;;;;;;;5096244;28;20070;-41
2021/09/24 01:06:45;;;;;;;2.25;1.27;;;;;;;;;;5096398;28;20078;-42
2021/09/24 01:09:10;;;;;;;3.72;1.52;;;;;;;;;;5096688;28;20024;-41
2021/09/24 01:11:36;;;;;;;3.95;1.50;;;;;;;;;;5095997;28;20043;-41
2021/09/24 01:14:02;;;;;;;3.85;1.55;;;;;;;;;;5096284;28;20012;-41
2021/09/24 01:16:27;;;;;;;2.45;1.42;;;;;;;;;;5096475;28;20059;-41
2021/09/24 01:18:53;;;;;;;2.00;1.55;;;;;;;;;;5096117;28;20502;-42
2021/09/24 01:21:18;;;;;;;2.08;1.40;;;;;;;;;;5096058;28;20073;-41
2021/09/24 01:23:44;;;;;;;1.73;1.50;;;;;;;;;;5095912;28;20020;-41
2021/09/24 01:26:09;;;;;;;3.58;2.22;;;;;;;;;;5095968;28;20066;-42
2021/09/24 01:28:35;;;;;;;3.20;1.25;;;;;;;;;;5095905;28;20028;-41
2021/09/24 01:31:01;;;;;;;2.58;1.38;;;;;;;;;;5095841;28;20043;-41
2021/09/24 01:33:26;;;;;;;2.97;1.90;;;;;;;;;;5094654;28;20039;-42
2021/09/24 01:35:52;;;;;;;4.13;1.60;;;;;;;;;;5095668;28;20028;-41
2021/09/24 01:38:17;;;;;;;1.95;1.42;;;;;;;;;;5095826;28;20055;-41
2021/09/24 01:40:43;;;;;;;1.52;1.10;;;;;;;;;;5095923;28;20085;-41
2021/09/24 01:43:08;;;;;;;1.35;1.02;;;;;;;;;;5095968;28;20059;-41
2021/09/24 01:45:33;;;;;;;2.42;1.25;;;;;;;;;;5095554;28;20401;-42
2021/09/24 01:47:59;;;;;;;4.25;1.80;;;;;;;;;;5095701;28;20020;-41
2021/09/24 01:50:24;;;;;;;3.55;1.80;;;;;;;;;;5095488;28;20043;-42
2021/09/24 01:52:49;;;;;;;3.97;1.67;;;;;;;;;;5095668;28;20012;-41
2021/09/24 01:55:15;;;;;;;4.25;1.35;;;;;;;;;;5095432;28;20034;-42
2021/09/24 01:57:40;;;;;;;5.90;1.35;;;;;;;;;;5095714;28;20047;-41
2021/09/24 02:00:07;;;;;;;4.95;1.90;;;;;;;;;;5095630;28;20023;-41
2021/09/24 02:02:32;;;;;;;2.20;1.33;;;;;;;;;;5095540;28;20126;-41
2021/09/24 02:04:58;;;;;;;1.48;1.38;;;;;;;;;;5095250;28;20034;-41
2021/09/24 02:07:23;;;;;;;9.48;2.20;;;;;;;;;;5095078;28;20028;-41
2021/09/24 02:09:49;;;;;;;4.13;1.23;;;;;;;;;;5094779;28;20023;-42
2021/09/24 02:12:14;;;;;;;4.10;1.55;;;;;;;;;;5095229;28;20024;-42
2021/09/24 02:14:40;;;;;;;2.55;1.60;;;;;;;;;;5094890;28;20035;-41
2021/09/24 02:17:05;;;;;;;2.30;1.77;;;;;;;;;;5095083;28;20382;-41
2021/09/24 02:19:31;;;;;;;2.53;1.73;;;;;;;;;;5095372;28;20028;-41
2021/09/24 02:21:57;;;;;;;5.38;1.48;;;;;;;;;;5094899;28;20095;-41
2021/09/24 02:24:23;;;;;;;2.33;1.25;;;;;;;;;;5094923;28;20039;-42
2021/09/24 02:26:49;;;;;;;1.58;1.13;;;;;;;;;;5095058;28;20427;-42
2021/09/24 02:29:14;;;;;;;1.73;1.33;;;;;;;;;;5094734;28;20102;-41
2021/09/24 02:31:40;;;;;;;1.40;1.10;;;;;;;;;;5094927;28;20077;-42
2021/09/24 02:34:05;;;;;;;3.00;1.35;;;;;;;;;;5094735;28;20055;-41
2021/09/24 02:36:31;;;;;;;1.40;1.30;;;;;;;;;;5094743;28;20016;-41
2021/09/24 02:38:56;;;;;;;2.42;1.55;;;;;;;;;;5094474;28;20032;-41
2021/09/24 02:41:22;;;;;;;2.17;1.42;;;;;;;;;;5094636;28;20015;-42
2021/09/24 02:43:47;;;;;;;3.00;1.92;;;;;;;;;;5094701;28;20071;-41
2021/09/24 02:46:13;;;;;;;2.22;1.40;;;;;;;;;;5094293;28;20236;-41
2021/09/24 02:48:38;;;;;;;3.33;1.30;;;;;;;;;;5094663;28;20036;-41
2021/09/24 02:51:04;;;;;;;5.95;2.05;;;;;;;;;;5094342;28;20090;-42
2021/09/24 02:53:29;;;;;;;2.65;2.17;;;;;;;;;;5094356;28;20583;-41
2021/09/24 02:55:54;;;;;;;5.80;1.50;;;;;;;;;;5094183;28;20043;-42
2021/09/24 02:58:20;;;;;;;2.47;1.38;;;;;;;;;;5094139;28;20057;-41
2021/09/24 03:00:45;;;;;;;1.67;1.55;;;;;;;;;;5094476;28;20043;-41
2021/09/24 03:03:11;;;;;;;1.70;1.30;;;;;;;;;;5094453;28;20475;-41
2021/09/24 03:05:36;;;;;;;4.40;1.85;;;;;;;;;;5094181;28;20021;-41
2021/09/24 03:08:02;;;;;;;2.95;1.80;;;;;;;;;;5094183;28;20443;-41
2021/09/24 03:10:28;;;;;;;2.15;1.27;;;;;;;;;;5092787;28;20104;-41
2021/09/24 03:12:53;;;;;;;3.42;1.27;;;;;;;;;;5094202;28;20051;-41
2021/09/24 03:15:19;;;;;;;2.97;1.67;;;;;;;;;;5093892;28;20458;-42
2021/09/24 03:17:45;;;;;;;3.92;1.30;;;;;;;;;;5093751;28;20077;-41
2021/09/24 03:20:10;;;;;;;1.77;1.50;;;;;;;;;;5092950;28;20020;-41
2021/09/24 03:22:36;;;;;;;2.53;1.70;;;;;;;;;;5093753;28;20119;-41
2021/09/24 03:25:01;;;;;;;1.70;1.45;;;;;;;;;;5093910;28;20016;-41
2021/09/24 03:27:27;;;;;;;4.88;1.83;;;;;;;;;;5093693;28;20431;-41
2021/09/24 03:29:53;;;;;;;3.10;1.55;;;;;;;;;;5093522;28;20119;-42
2021/09/24 03:32:19;;;;;;;3.88;1.58;;;;;;;;;;5093578;28;20114;-41
2021/09/24 03:34:47;;;;;;;1.77;1.45;;;;;;;;;;5093754;28;20016;-41
2021/09/24 03:37:13;;;;;;;3.28;1.20;;;;;;;;;;5093787;28;20035;-42
2021/09/24 03:39:38;;;;;;;4.47;1.45;;;;;;;;;;5093359;28;20012;-41
2021/09/24 03:42:04;;;;;;;1.70;1.33;;;;;;;;;;5093485;28;20134;-41
2021/09/24 03:44:30;;;;;;;4.38;1.20;;;;;;;;;;5093654;28;20073;-41
2021/09/24 03:46:56;;;;;;;4.78;2.42;;;;;;;;;;5093183;28;20443;-41
2021/09/24 03:49:23;;;;;;;6.82;1.40;;;;;;;;;;5093559;28;20460;-41
2021/09/24 03:51:48;;;;;;;2.03;1.45;;;;;;;;;;5093125;28;20086;-41
2021/09/24 03:54:14;;;;;;;5.13;1.70;;;;;;;;;;5093056;28;20020;-41
2021/09/24 03:56:39;;;;;;;2.08;1.50;;;;;;;;;;5091880;28;20039;-41
2021/09/24 03:59:04;;;;;;;2.38;1.27;;;;;;;;;;5093226;28;20020;-42
2021/09/24 04:01:30;;;;;;;5.78;1.42;;;;;;;;;;5093308;28;20437;-41
2021/09/24 04:03:55;;;;;;;1.75;1.23;;;;;;;;;;5092919;28;20344;-41
2021/09/24 04:06:21;;;;;;;2.67;1.48;;;;;;;;;;5093258;28;20020;-41
2021/09/24 04:08:46;;;;;;;1.90;1.40;;;;;;;;;;5092888;28;20505;-42
2021/09/24 04:11:12;;;;;;;2.67;1.38;;;;;;;;;;5092911;28;20040;-43
2021/09/24 04:13:37;;;;;;;1.63;1.35;;;;;;;;;;5093039;28;20016;-41
2021/09/24 04:16:03;;;;;;;3.10;1.27;;;;;;;;;;5093058;28;20397;-41
2021/09/24 04:18:28;;;;;;;2.28;1.33;;;;;;;;;;5092841;28;20027;-41
2021/09/24 04:20:54;;;;;;;1.45;1.13;;;;;;;;;;5092572;28;20031;-41
2021/09/24 04:23:19;;;;;;;6.57;1.55;;;;;;;;;;5092971;28;20024;-41
2021/09/24 04:25:45;;;;;;;2.47;1.52;;;;;;;;;;5092797;28;20024;-42
2021/09/24 04:28:10;;;;;;;1.75;1.40;;;;;;;;;;5092649;28;20020;-41
2021/09/24 04:30:36;;;;;;;1.73;1.40;;;;;;;;;;5092532;28;20093;-41
2021/09/24 04:33:01;;;;;;;1.77;1.20;;;;;;;;;;5092673;28;20015;-41
2021/09/24 04:35:27;;;;;;;2.95;1.40;;;;;;;;;;5092540;28;20036;-41
2021/09/24 04:37:52;;;;;;;3.80;1.50;;;;;;;;;;5092365;28;20112;-41
2021/09/24 04:40:18;;;;;;;3.33;1.60;;;;;;;;;;5092819;28;20099;-41
2021/09/24 04:42:43;;;;;;;2.30;1.42;;;;;;;;;;5092774;28;20429;-41
2021/09/24 04:45:10;;;;;;;2.38;1.20;;;;;;;;;;5092447;28;20048;-42
2021/09/24 04:47:35;;;;;;;2.53;1.83;;;;;;;;;;5092295;28;20440;-41
2021/09/24 04:50:01;;;;;;;5.05;1.33;;;;;;;;;;5092701;28;20032;-41
2021/09/24 04:52:26;;;;;;;2.13;1.33;;;;;;;;;;5092243;28;20035;-41
2021/09/24 04:54:53;;;;;;;2.83;1.35;;;;;;;;;;5092308;28;20064;-41
2021/09/24 04:57:18;;;;;;;5.15;1.90;;;;;;;;;;5092299;28;20020;-42
2021/09/24 04:59:44;;;;;;;1.90;1.38;;;;;;;;;;5092535;28;20035;-41
2021/09/24 05:02:09;;;;;;;2.35;1.50;;;;;;;;;;5092407;28;20031;-41
2021/09/24 05:04:35;;;;;;;2.10;1.67;;;;;;;;;;5092121;28;20024;-41
2021/09/24 05:07:00;;;;;;;2.30;1.83;;;;;;;;;;5092340;28;20026;-41
2021/09/24 05:09:26;;;;;;;2.95;1.25;;;;;;;;;;5092218;28;20016;-41
2021/09/24 05:11:52;;;;;;;2.20;1.40;;;;;;;;;;5092404;28;20024;-41
2021/09/24 05:14:17;;;;;;;2.10;1.30;;;;;;;;;;5092479;28;20360;-42
2021/09/24 05:16:42;;;;;;;3.42;1.50;;;;;;;;;;5092118;28;20089;-41
2021/09/24 05:19:08;;;;;;;2.58;1.45;;;;;;;;;;5092185;28;20020;-41
2021/09/24 05:21:33;;;;;;;5.00;1.30;;;;;;;;;;5092187;28;20024;-41
2021/09/24 05:23:59;;;;;;;2.83;1.50;;;;;;;;;;5092025;28;20028;-42
2021/09/24 05:26:25;;;;;;;1.30;1.20;;;;;;;;;;5092153;28;20023;-41
2021/09/24 05:28:50;;;;;;;1.88;1.38;;;;;;;;;;5091947;28;20050;-41
2021/09/24 05:31:15;;;;;;;3.47;1.38;;;;;;;;;;5092036;28;20028;-41
2021/09/24 05:33:41;;;;;;;2.83;1.80;;;;;;;;;;5091976;28;20082;-42
2021/09/24 05:36:08;;;;;;;4.20;1.38;;;;;;;;;;5091877;28;20480;-41
2021/09/24 05:38:33;;;;;;;2.25;1.17;;;;;;;;;;5092032;28;20039;-41
2021/09/24 05:40:59;;;;;;;1.55;1.20;;;;;;;;;;5091776;28;20020;-41
2021/09/24 05:43:24;;;;;;;2.55;1.50;;;;;;;;;;5092547;28;20118;-41
2021/09/24 05:45:49;;;;;;;2.80;1.63;;;;;;;;;;5095626;28;20040;-41
2021/09/24 05:48:15;;;;;;;2.60;1.42;;;;;;;;;;5095845;28;20028;-41
2021/09/24 05:50:40;;;;;;;3.10;1.52;;;;;;;;;;5095449;28;20030;-41
2021/09/24 05:53:06;;;;;;;5.00;1.50;;;;;;;;;;5095604;28;20035;-42
2021/09/24 05:55:31;;;;;;;4.43;1.83;;;;;;;;;;5095507;28;20051;-42
2021/09/24 05:57:57;;;;;;;2.38;1.30;;;;;;;;;;5095765;28;20428;-41
2021/09/24 06:00:23;;;;;;;4.07;1.42;;;;;;;;;;5095519;28;20386;-41
2021/09/24 06:02:49;;;;;;;5.30;1.90;;;;;;;;;;5095163;28;20111;-41
2021/09/24 06:10:38;;;;;;;4.43;1.27;;;;;;;;;;5068688;28;20449;-42
2021/09/24 06:13:05;;;;;;;3.72;2.08;;;;;;;;;;5069770;28;20021;-42
2021/09/24 06:15:30;;;;;;;3.38;1.92;;;;;;;;;;5069625;28;20449;-42
2021/09/24 06:17:55;;;;;;;1.98;1.42;;;;;;;;;;5069564;28;20054;-42
2021/09/24 06:20:21;;;;;;;1.83;1.52;;;;;;;;;;5069570;28;20024;-42
2021/09/24 06:22:47;;;;;;;3.08;2.15;;;;;;;;;;5069540;28;20043;-42
2021/09/24 06:25:13;;;;;;;4.00;1.42;;;;;;;;;;5085122;28;20383;-42
2021/09/24 06:27:38;;;;;;;7.68;1.80;;;;;;;;;;5069639;28;20033;-42
2021/09/24 06:30:05;;;;;;;2.35;1.55;;;;;;;;;;5069107;28;20032;-42
2021/09/24 06:32:31;;;;;;;1.42;1.30;;;;;;;;;;5069405;28;20024;-42
2021/09/24 06:34:56;;;;;;;2.17;1.70;;;;;;;;;;5069223;28;20050;-42
2021/09/24 06:37:22;;;;;;;3.50;1.80;;;;;;;;;;5069259;28;20078;-43
2021/09/24 06:39:47;;;;;;;2.22;1.50;;;;;;;;;;5068892;28;20020;-42
2021/09/24 06:42:13;;;;;;;3.25;1.85;;;;;;;;;;5069529;28;20040;-42
2021/09/24 06:44:39;;;;;;;6.20;1.73;;;;;;;;;;5068881;28;20104;-42
2021/09/24 06:47:05;;;;;;;2.95;1.85;;;;;;;;;;5068854;28;20039;-42
2021/09/24 06:49:30;;;;;;;4.22;1.73;;;;;;;;;;5069140;28;20043;-42
2021/09/24 06:51:58;;;;;;;3.22;1.63;;;;;;;;;;5069119;28;20036;-42
2021/09/24 06:54:24;;;;;;;3.88;2.90;;;;;;;;;;5068878;28;20379;-42
2021/09/24 06:56:50;;;;;;;5.75;1.75;;;;;;;;;;5068641;28;20029;-42
2021/09/24 06:59:16;;;;;;;2.22;1.70;;;;;;;;;;5069068;28;20073;-42
2021/09/24 07:01:43;;;;;;;3.17;1.90;;;;;;;;;;5068751;28;20040;-42
2021/09/24 07:04:08;;;;;;;3.65;1.73;;;;;;;;;;5068659;28;20017;-42
2021/09/24 07:06:34;;;;;;;4.43;2.05;;;;;;;;;;5069025;28;20079;-42
2021/09/24 07:08:59;;;;;;;5.43;1.95;;;;;;;;;;5068357;28;20074;-42
2021/09/24 07:11:25;;;;;;;7.32;2.47;;;;;;;;;;5068901;28;20025;-42
2021/09/24 07:13:50;;;;;;;3.50;1.83;;;;;;;;;;5068627;28;20029;-42
2021/09/24 07:16:16;;;;;;;2.67;1.92;;;;;;;;;;5068478;28;20094;-42
2021/09/24 07:18:41;;;;;;;2.38;1.63;;;;;;;;;;5068614;28;20024;-41
2021/09/24 07:21:07;;;;;;;9.13;1.75;;;;;;;;;;5058443;28;20471;-42
2021/09/24 07:23:32;;;;;;;6.55;1.55;;;;;;;;;;5055415;28;20107;-41
2021/09/24 07:25:58;;;;;;;2.78;1.85;;;;;;;;;;5070680;28;20025;-44
2021/09/24 07:28:24;;;;;;;3.80;2.03;;;;;;;;;;5053745;28;20021;-42
2021/09/24 07:30:49;;;;;;;4.72;2.05;;;;;;;;;;5054940;28;20409;-42
2021/09/24 07:33:14;;;;;;;5.30;1.75;;;;;;;;;;5055324;28;20013;-42
2021/09/24 07:35:40;;;;;;;5.13;1.90;;;;;;;;;;5054946;28;20491;-42
2021/09/24 07:38:05;;;;;;;5.00;2.53;;;;;;;;;;5055237;28;20612;-42
2021/09/24 07:40:31;;;;;;;3.15;1.90;;;;;;;;;;5054849;28;20028;-42
2021/09/24 07:42:57;;;;;;;5.63;1.35;;;;;;;;;;5054624;28;20033;-43
2021/09/24 07:45:23;;;;;;;3.17;1.90;;;;;;;;;;5055038;28;20060;-42
2021/09/24 07:47:48;;;;;;;3.00;1.88;;;;;;;;;;5054604;28;20021;-42
2021/09/24 07:50:14;;;;;;;7.55;1.90;;;;;;;;;;5054601;28;20037;-42
2021/09/24 07:52:40;;;;;;;2.47;1.92;;;;;;;;;;5054466;28;20021;-42
2021/09/24 07:55:07;;;;;;;2.45;1.85;;;;;;;;;;5054513;28;20044;-42
2021/09/24 07:57:32;;;;;;;2.95;2.38;;;;;;;;;;5054805;28;20024;-42
2021/09/24 07:59:58;;;;;;;4.28;1.75;;;;;;;;;;5054399;28;20384;-42
2021/09/24 08:02:23;;;;;;;2.03;1.52;;;;;;;;;;5054461;28;20021;-42
2021/09/24 08:04:49;;;;;;;2.45;1.55;;;;;;;;;;5054273;28;20055;-42
2021/09/24 08:07:14;;;;;;;2.60;1.90;;;;;;;;;;5054310;28;20024;-42
2021/09/24 08:09:40;;;;;;;3.22;2.08;;;;;;;;;;5052720;28;20045;-42
2021/09/24 08:12:06;;;;;;;1.80;1.50;;;;;;;;;;5054247;28;20380;-42
2021/09/24 08:14:31;;;;;;;2.25;2.00;;;;;;;;;;5054413;28;20127;-42
2021/09/24 08:16:57;;;;;;;6.03;1.80;;;;;;;;;;5054079;28;20373;-42
2021/09/24 08:19:23;;;;;;;4.22;1.75;;;;;;;;;;5054113;28;20484;-42
2021/09/24 08:21:48;;;;;;;5.00;1.90;;;;;;;;;;5054006;28;20023;-42
2021/09/24 08:24:13;;;;;;;2.42;1.63;;;;;;;;;;5053941;28;20041;-42
2021/09/24 08:26:39;;;;;;;3.13;1.52;;;;;;;;;;5054120;28;20017;-42
2021/09/24 08:29:04;;;;;;;1.92;1.30;;;;;;;;;;5053868;28;20049;-42
2021/09/24 08:31:30;;;;;;;3.83;1.52;;;;;;;;;;5053535;28;20020;-42
2021/09/24 08:33:58;;;;;;;3.08;2.20;;;;;;;;;;5053022;28;20067;-42
2021/09/24 08:36:24;;;;;;;3.50;1.85;;;;;;;;;;5053842;28;20468;-42
2021/09/24 08:38:50;;;;;;;3.08;1.50;;;;;;;;;;5053581;28;20032;-42
2021/09/24 08:41:15;;;;;;;5.18;2.15;;;;;;;;;;5053727;28;20029;-42
2021/09/24 08:43:41;;;;;;;3.42;1.80;;;;;;;;;;5053570;28;20095;-42
2021/09/24 08:46:06;;;;;;;2.88;1.77;;;;;;;;;;5053554;28;20475;-42
2021/09/24 08:48:34;;;;;;;2.95;1.63;;;;;;;;;;5053833;28;20029;-42
2021/09/24 08:50:59;;;;;;;3.65;1.70;;;;;;;;;;5053282;28;20124;-42
2021/09/24 08:53:26;;;;;;;5.63;1.95;;;;;;;;;;5053460;28;20104;-42
2021/09/24 08:55:51;;;;;;;3.70;2.22;;;;;;;;;;5053367;28;20025;-42
2021/09/24 08:58:17;;;;;;;4.55;1.65;;;;;;;;;;5069147;28;20035;-41
2021/09/24 09:00:43;;;;;;;3.55;1.88;;;;;;;;;;5053203;28;20422;-42
2021/09/24 09:03:10;;;;;;;3.53;1.73;;;;;;;;;;5053516;28;20027;-42
2021/09/24 09:05:40;;;;;;;8.55;2.55;;;;;;;;;;5053483;28;20383;-42
2021/09/24 09:08:11;;;;;;;2.72;1.70;;;;;;;;;;5053434;28;20087;-41
2021/09/24 09:10:46;;;;;;;4.07;2.33;;;;;;;;;;5053437;28;20411;-42
2021/09/24 09:13:12;;;;;;;4.35;2.10;;;;;;;;;;5053156;28;20052;-42
2021/09/24 09:15:38;;;;;;;4.78;2.60;;;;;;;;;;5053122;28;20399;-42
2021/09/24 09:18:04;;;;;;;3.35;2.67;;;;;;;;;;5053040;28;20029;-42
2021/09/24 09:20:30;;;;;;;3.15;2.35;;;;;;;;;;5068662;28;20412;-42
2021/09/24 09:22:58;;;;;;;4.38;2.28;;;;;;;;;;5052812;28;20037;-44
2021/09/24 09:25:28;;;;;;;3.83;1.65;;;;;;;;;;5053136;28;20021;-42
2021/09/24 09:27:55;;;;;;;7.38;2.80;;;;;;;;;;5052756;28;20029;-42
2021/09/24 09:30:21;;;;;;;7.90;3.42;;;;;;;;;;5053006;28;20093;-42
2021/09/24 09:32:58;;;;;;;2.22;1.77;;;;;;;;;;5052658;28;20029;-42
2021/09/24 09:35:24;;;;;;;2.05;1.85;;;;;;;;;;5051439;28;20040;-41
2021/09/24 09:37:49;;;;;;;4.55;2.80;;;;;;;;;;5052863;28;20028;-42
2021/09/24 09:40:16;;;;;;;2.53;1.77;;;;;;;;;;5052586;28;20119;-42
2021/09/24 09:42:42;;;;;;;4.50;2.38;;;;;;;;;;5052486;28;20194;-42
2021/09/24 09:45:09;;;;;;;5.22;2.53;;;;;;;;;;5051112;28;20032;-42
2021/09/24 09:47:36;;;;;;;6.28;1.80;;;;;;;;;;5052884;28;20108;-42
2021/09/24 09:50:05;;;;;;;2.47;1.98;;;;;;;;;;5052306;28;20651;-41
2021/09/24 09:52:33;;;;;;;1.60;1.45;;;;;;;;;;5051252;28;20067;-42
2021/09/24 09:55:02;;;;;;;3.33;1.80;;;;;;;;;;5051133;28;20025;-42
2021/09/24 09:57:28;;;;;;;3.42;1.73;;;;;;;;;;5051142;28;20590;-41
2021/09/24 09:59:56;;;;;;;4.53;3.40;;;;;;;;;;5052292;28;20039;-41
2021/09/24 10:02:29;;;;;;;6.05;2.63;;;;;;;;;;5052670;28;20371;-42
2021/09/24 10:04:54;;;;;;;9.65;1.77;;;;;;;;;;5052136;28;20107;-41
2021/09/24 10:07:24;;;;;;;3.80;1.90;;;;;;;;;;5052308;28;20430;-42
2021/09/24 10:10:02;;;;;;;6.82;2.50;;;;;;;;;;5052021;28;20514;-45
2021/09/24 10:12:27;;;;;;;5.25;2.00;;;;;;;;;;5052212;28;20530;-42
2021/09/24 10:14:53;;;;;;;3.13;1.60;;;;;;;;;;5052061;28;20021;-42
2021/09/24 10:17:19;;;;;;;15.80;3.90;;;;;;;;;;5052187;28;20075;-42
2021/09/24 10:19:46;;;;;;;11.23;3.95;;;;;;;;;;5052066;28;20017;-42
2021/09/24 10:22:12;;;;;;;4.32;3.15;;;;;;;;;;5052532;28;20040;-42
2021/09/24 10:24:40;;;;;;;7.32;4.30;;;;;;;;;;5052067;28;20486;-43
2021/09/24 10:27:07;;;;;;;8.00;3.78;;;;;;;;;;5052343;28;20380;-42
2021/09/24 10:29:41;;;;;;;5.40;3.22;;;;;;;;;;5050724;28;20480;-43
2021/09/24 10:32:15;;;;;;;12.55;4.43;;;;;;;;;;5052077;28;20037;-42
2021/09/24 10:34:58;;;;;;;4.72;3.45;;;;;;;;;;5051883;28;20036;-42
2021/09/24 10:37:25;;;;;;;7.60;3.30;;;;;;;;;;5052132;28;20036;-42
2021/09/24 10:39:57;;;;;;;6.40;2.80;;;;;;;;;;5051764;28;20013;-42
2021/09/24 10:42:29;;;;;;;5.65;2.95;;;;;;;;;;5067600;28;20029;-43
2021/09/24 10:45:06;;;;;;;5.75;3.42;;;;;;;;;;5051886;28;20029;-42
2021/09/24 10:47:41;;;;;;;4.97;3.35;;;;;;;;;;5051936;28;20037;-41
2021/09/24 10:50:25;;;;;;;5.32;2.78;;;;;;;;;;5052132;28;20400;-42
2021/09/24 10:55:40;;;;;;;8.35;3.78;;;;;;;;;;5052644;28;20036;-42
2021/09/24 10:58:06;;;;;;;7.47;4.90;;;;;;;;;;5055924;28;20025;-42
2021/09/24 11:00:32;;;;;;;13.30;5.10;;;;;;;;;;5055850;28;20435;-42
2021/09/24 11:03:08;;;;;;;7.40;4.53;;;;;;;;;;5055433;28;20096;-42
2021/09/24 11:05:52;;;;;;;7.40;3.53;;;;;;;;;;5055530;28;20479;-42
2021/09/24 11:08:38;;;;;;;6.07;3.40;;;;;;;;;;5055110;28;20067;-42
2021/09/24 11:11:03;;;;;;;8.52;4.35;;;;;;;;;;5055152;28;20407;-42
2021/09/24 11:13:30;;;;;;;8.38;4.18;;;;;;;;;;5055595;28;20017;-42
2021/09/24 11:15:59;;;;;;;12.02;5.72;;;;;;;;;;5055446;28;20037;-42
2021/09/24 11:18:44;;;;;;;9.27;4.50;;;;;;;;;;5055306;28;20025;-42
2021/09/24 11:21:09;;;;;;;12.18;5.00;;;;;;;;;;5055514;28;20029;-42
2021/09/24 11:23:37;;;;;;;13.13;5.82;;;;;;;;;;5055003;28;20029;-42
2021/09/24 11:26:12;;;;;;;8.88;5.45;;;;;;;;;;5055043;28;20072;-42
2021/09/24 11:28:37;;;;;;;8.85;5.30;;;;;;;;;;5054916;28;20124;-42
2021/09/24 11:31:06;;;;;;;8.88;4.85;;;;;;;;;;5054976;28;20032;-42
2021/09/24 11:33:43;;;;;;;8.63;5.25;;;;;;;;;;5055007;28;20029;-42
2021/09/24 11:36:09;;;;;;;13.10;6.13;;;;;;;;;;5054969;28;20506;-42
2021/09/24 11:38:34;;;;;;;8.57;5.43;;;;;;;;;;5054913;28;20021;-42
2021/09/24 11:41:00;;;;;;;11.48;7.40;;;;;;;;;;5054719;28;20021;-42
2021/09/24 11:43:25;;;;;;;15.98;6.15;;;;;;;;;;5070489;28;20077;-42
2021/09/24 11:45:51;;;;;;;18.63;6.50;;;;;;;;;;5070060;28;20029;-42
2021/09/24 11:48:26;;;;;;;11.32;5.30;;;;;;;;;;5054721;28;20021;-42
2021/09/24 11:50:52;;;;;;;13.20;7.18;;;;;;;;;;5054485;28;20086;-42
2021/09/24 11:53:17;;;;;;;12.52;6.30;;;;;;;;;;5054600;28;20021;-42
2021/09/24 11:55:44;;;;;;;7.97;4.55;;;;;;;;;;5054490;28;20029;-41
2021/09/24 11:58:11;;;;;;;10.98;4.95;;;;;;;;;;5054459;28;20029;-42
2021/09/24 12:00:36;;;;;;;10.38;5.72;;;;;;;;;;5054518;28;20032;-42
2021/09/24 12:03:06;;;;;;;8.35;4.88;;;;;;;;;;5053087;28;20029;-42
2021/09/24 12:05:32;;;;;;;10.90;5.80;;;;;;;;;;5053129;28;20376;-42
2021/09/24 12:07:57;;;;;;;11.32;6.45;;;;;;;;;;5054157;28;20035;-42
2021/09/24 12:10:27;;;;;;;10.85;6.05;;;;;;;;;;5054112;28;20063;-42
2021/09/24 12:13:05;;;;;;;7.80;4.07;;;;;;;;;;5054131;28;20476;-42
2021/09/24 12:15:47;;;;;;;6.18;4.38;;;;;;;;;;5054506;28;20033;-42
2021/09/24 12:18:12;;;;;;;9.63;6.20;;;;;;;;;;5054347;28;20025;-42
2021/09/24 12:20:38;;;;;;;18.08;7.97;;;;;;;;;;5053995;28;20036;-42
2021/09/24 12:23:03;;;;;;;9.85;4.88;;;;;;;;;;5053945;28;20029;-42
2021/09/24 12:25:28;;;;;;;7.72;4.55;;;;;;;;;;5053908;28;20108;-42
2021/09/24 12:28:06;;;;;;;9.73;4.20;;;;;;;;;;5053798;28;20479;-42
2021/09/24 12:30:36;;;;;;;10.55;6.00;;;;;;;;;;5054225;28;20067;-42
2021/09/24 12:33:15;;;;;;;11.57;4.45;;;;;;;;;;5053727;28;20029;-42
2021/09/24 12:35:41;;;;;;;9.65;5.60;;;;;;;;;;5053774;28;20035;-42
2021/09/24 12:38:23;;;;;;;10.07;5.82;;;;;;;;;;5053867;28;20044;-42
2021/09/24 12:41:04;;;;;;;6.20;4.07;;;;;;;;;;5053712;28;20032;-42
2021/09/24 12:43:33;;;;;;;6.63;4.03;;;;;;;;;;5053682;28;20273;-42
2021/09/24 12:45:59;;;;;;;10.85;5.82;;;;;;;;;;5053822;28;20010;-42
2021/09/24 12:48:24;;;;;;;6.55;4.07;;;;;;;;;;5053588;28;20365;-42
2021/09/24 12:50:50;;;;;;;7.68;3.67;;;;;;;;;;5053372;28;20031;-42
2021/09/24 12:53:19;;;;;;;9.05;5.18;;;;;;;;;;5053528;28;20075;-42
2021/09/24 12:55:45;;;;;;;12.07;5.82;;;;;;;;;;5053345;28;20043;-42
2021/09/24 12:58:11;;;;;;;10.10;5.55;;;;;;;;;;5053371;28;20082;-42
2021/09/24 13:00:36;;;;;;;6.50;4.28;;;;;;;;;;5053347;28;20025;-42
2021/09/24 13:03:03;;;;;;;8.50;5.25;;;;;;;;;;5053125;28;20063;-42
2021/09/24 13:05:29;;;;;;;8.52;4.90;;;;;;;;;;5068994;28;20021;-42
2021/09/24 13:07:55;;;;;;;9.02;4.80;;;;;;;;;;5053155;28;20379;-42
2021/09/24 13:10:21;;;;;;;10.02;5.53;;;;;;;;;;5052865;28;20041;-42
2021/09/24 13:12:46;;;;;;;7.32;4.00;;;;;;;;;;5053036;28;20041;-42
2021/09/24 13:15:14;;;;;;;16.85;8.70;;;;;;;;;;5052948;28;20533;-42
2021/09/24 13:17:40;;;;;;;10.30;6.10;;;;;;;;;;5052816;28;20384;-42
2021/09/24 13:20:10;;;;;;;14.13;6.10;;;;;;;;;;5052543;28;20021;-42
2021/09/24 13:22:35;;;;;;;8.88;5.00;;;;;;;;;;5052992;28;20053;-41
2021/09/24 13:25:05;;;;;;;11.07;4.22;;;;;;;;;;5052800;28;20487;-42
2021/09/24 13:27:31;;;;;;;9.35;5.20;;;;;;;;;;5052814;28;20108;-42
2021/09/24 13:29:56;;;;;;;7.55;4.40;;;;;;;;;;5052643;28;20120;-42
2021/09/24 13:32:22;;;;;;;18.60;8.80;;;;;;;;;;5052836;28;20071;-41
2021/09/24 13:34:47;;;;;;;10.07;5.43;;;;;;;;;;5052890;28;20043;-42
2021/09/24 13:37:13;;;;;;;12.57;6.50;;;;;;;;;;5052699;28;20229;-42
2021/09/24 13:39:39;;;;;;;10.05;5.00;;;;;;;;;;5052688;28;20427;-43
2021/09/24 13:42:04;;;;;;;12.50;5.28;;;;;;;;;;5052636;28;20025;-42
2021/09/24 13:44:30;;;;;;;7.32;4.78;;;;;;;;;;5051282;28;20536;-42
2021/09/24 13:46:56;;;;;;;7.55;4.05;;;;;;;;;;5052766;28;20104;-42
2021/09/24 13:49:21;;;;;;;12.95;6.20;;;;;;;;;;5052563;28;20470;-41
2021/09/24 13:51:47;;;;;;;7.82;4.32;;;;;;;;;;5052330;28;20028;-42
2021/09/24 13:54:12;;;;;;;8.40;4.50;;;;;;;;;;5052714;28;20021;-42
2021/09/24 13:56:38;;;;;;;7.63;5.03;;;;;;;;;;5052451;28;20395;-39
2021/09/24 13:59:03;;;;;;;9.20;4.60;;;;;;;;;;5052512;28;20032;-40
2021/09/24 14:01:29;;;;;;;10.02;4.45;;;;;;;;;;5052431;28;20071;-39
2021/09/24 14:03:56;;;;;;;12.23;5.82;;;;;;;;;;5052171;28;20009;-40
2021/09/24 14:06:22;;;;;;;11.48;7.47;;;;;;;;;;5052315;28;20033;-39
2021/09/24 14:08:47;;;;;;;7.38;4.13;;;;;;;;;;5051955;28;20517;-39
2021/09/24 14:11:13;;;;;;;10.25;4.40;;;;;;;;;;5052285;28;20040;-40
2021/09/24 14:13:39;;;;;;;8.85;4.38;;;;;;;;;;5052508;28;20095;-40
2021/09/24 14:16:05;;;;;;;13.63;5.35;;;;;;;;;;5052441;28;20043;-43
2021/09/24 14:18:31;;;;;;;10.77;5.88;;;;;;;;;;5052197;28;20013;-40
2021/09/24 14:20:57;;;;;;;11.20;5.25;;;;;;;;;;5052015;28;20546;-40
2021/09/24 14:23:23;;;;;;;10.93;5.07;;;;;;;;;;5052197;28;20049;-40
2021/09/24 14:25:48;;;;;;;6.22;3.45;;;;;;;;;;5052121;28;20044;-40
2021/09/24 14:28:14;;;;;;;6.47;3.72;;;;;;;;;;5052129;28;20053;-40
2021/09/24 14:30:39;;;;;;;5.85;3.72;;;;;;;;;;5053033;28;20037;-40
2021/09/24 14:33:05;;;;;;;7.20;4.28;;;;;;;;;;5056110;28;20054;-41
2021/09/24 14:35:31;;;;;;;18.02;4.18;;;;;;;;;;5056096;28;20476;-41
2021/09/24 14:37:56;;;;;;;5.68;3.40;;;;;;;;;;5055993;28;20344;-40
2021/09/24 14:40:22;;;;;;;4.32;2.70;;;;;;;;;;5056074;28;20089;-41
2021/09/24 14:42:48;;;;;;;4.93;3.00;;;;;;;;;;5055786;28;20421;-40
2021/09/24 14:45:14;;;;;;;8.73;3.58;;;;;;;;;;5054711;28;20037;-40